Time;durP1;ratioP1;P1;durP2;ratioP2;P2;SDS_P1;SDS_P2;PMS_P1;PMS_P2;Temp;Humidity;BMP_temperature;BMP_pressure;BME280_temperature;BME280_humidity;BME280_pressure;Samples;Min_cycle;Max_cycle;Signal;HPM_P1;HPM_P2
2023/06/09 00:00:19;;;;;;;12.20;10.93;;;19.40;99.90;;;18.94;100.00;100371.63;4121297;28;20027;-75
2023/06/09 00:02:22;;;;;;;13.68;12.35;;;19.40;99.90;;;18.92;100.00;100371.03;4122970;28;20030;-75
2023/06/09 00:04:23;;;;;;;13.50;12.23;;;19.40;99.90;;;18.91;100.00;100363.22;4136195;28;20066;-75
2023/06/09 00:06:24;;;;;;;12.90;11.50;;;19.40;99.90;;;18.89;100.00;100360.78;4123021;28;20038;-75
2023/06/09 00:08:25;;;;;;;14.75;12.63;;;19.30;99.90;;;18.87;100.00;100362.03;4122752;28;20019;-75
2023/06/09 00:10:27;;;;;;;13.50;11.73;;;19.30;99.90;;;18.90;100.00;100361.59;4132531;28;20026;-75
2023/06/09 00:12:27;;;;;;;13.75;12.13;;;19.40;99.90;;;18.87;100.00;100357.53;4123091;28;20034;-75
2023/06/09 00:14:29;;;;;;;12.88;11.70;;;19.40;99.90;;;18.90;100.00;100361.59;4122898;28;20047;-76
2023/06/09 00:16:30;;;;;;;12.30;11.18;;;19.30;99.90;;;18.88;100.00;100359.13;4122405;28;20130;-75
2023/06/09 00:18:30;;;;;;;13.23;12.02;;;19.40;99.90;;;18.88;100.00;100352.97;4121445;28;20026;-75
2023/06/09 00:20:33;;;;;;;12.80;11.63;;;19.30;99.90;;;18.87;100.00;100349.50;4122556;28;20034;-75
2023/06/09 00:22:42;;;;;;;13.30;11.98;;;19.30;99.90;;;18.90;100.00;100357.09;4128596;28;20119;-75
2023/06/09 00:24:45;;;;;;;12.00;10.95;;;19.40;99.90;;;18.87;100.00;100346.81;4138690;28;20029;-75
2023/06/09 00:26:50;;;;;;;13.32;12.02;;;19.40;99.90;;;18.91;100.00;100347.19;4138391;28;20026;-75
2023/06/09 00:28:51;;;;;;;12.23;11.02;;;19.40;99.90;;;18.90;100.00;100335.69;4137521;28;20477;-75
2023/06/09 00:30:52;;;;;;;13.00;11.70;;;19.40;99.90;;;18.91;100.00;100331.16;4138347;28;20034;-75
2023/06/09 00:32:53;;;;;;;10.75;9.75;;;19.30;99.90;;;18.88;100.00;100326.25;4138532;28;20494;-76
2023/06/09 00:34:54;;;;;;;11.68;10.57;;;19.40;99.90;;;18.90;100.00;100334.88;4137075;28;20112;-76
2023/06/09 00:36:55;;;;;;;12.40;11.20;;;19.30;99.90;;;18.90;100.00;100340.22;4138519;28;20042;-75
2023/06/09 00:38:56;;;;;;;12.30;11.18;;;19.30;99.90;;;18.90;100.00;100329.53;4138529;28;20077;-75
2023/06/09 00:40:56;;;;;;;13.13;11.25;;;19.30;99.90;;;18.87;100.00;100332.63;4138430;28;20037;-75
2023/06/09 00:42:57;;;;;;;13.43;12.13;;;19.30;99.90;;;18.87;100.00;100325.44;4137149;28;20025;-75
2023/06/09 00:44:59;;;;;;;12.23;10.95;;;19.30;99.90;;;18.83;100.00;100320.75;4138116;28;20046;-75
2023/06/09 00:47:00;;;;;;;12.60;11.40;;;19.30;99.90;;;18.78;100.00;100316.06;4137197;28;20026;-75
2023/06/09 00:49:01;;;;;;;13.30;12.00;;;19.30;99.90;;;18.82;100.00;100319.13;4136955;28;20026;-75
2023/06/09 00:51:02;;;;;;;12.18;11.10;;;19.30;99.90;;;18.79;100.00;100307.81;4138100;28;20034;-75
2023/06/09 00:53:04;;;;;;;13.98;12.68;;;19.20;99.90;;;18.80;100.00;100314.00;4138327;28;20383;-75
2023/06/09 00:55:06;;;;;;;14.02;12.63;;;19.20;99.90;;;18.76;100.00;100291.41;4136873;28;20026;-75
2023/06/09 00:57:08;;;;;;;19.42;11.70;;;19.20;99.90;;;18.74;100.00;100296.16;4136960;28;20062;-75
2023/06/09 00:59:10;;;;;;;12.70;11.50;;;19.20;99.90;;;18.72;100.00;100296.41;4136990;28;20058;-75
2023/06/09 01:01:11;;;;;;;12.00;10.80;;;19.20;99.90;;;18.73;100.00;100292.66;4135624;28;20113;-75
2023/06/09 01:03:12;;;;;;;14.00;12.43;;;19.20;99.90;;;18.73;100.00;100302.53;4137970;28;20138;-75
2023/06/09 01:05:13;;;;;;;12.30;11.07;;;19.20;99.90;;;18.73;100.00;100305.19;4128469;28;20031;-76
2023/06/09 01:07:20;;;;;;;12.65;11.38;;;19.20;99.90;;;18.75;100.00;100298.63;4121900;28;20065;-75
2023/06/09 01:10:00;;;;;;;10.90;9.90;;;19.20;99.90;;;18.75;100.00;100295.97;4121880;28;20082;-75
2023/06/09 01:12:31;;;;;;;12.23;11.13;;;19.20;99.90;;;18.73;100.00;100302.53;4120514;28;20031;-76
2023/06/09 01:14:58;;;;;;;13.90;12.55;;;19.20;99.90;;;18.69;100.00;100296.84;4121821;28;20029;-75
2023/06/09 01:17:09;;;;;;;11.98;10.75;;;19.20;99.90;;;18.72;100.00;100311.59;4121810;28;20047;-75
2023/06/09 01:19:34;;;;;;;11.48;10.38;;;19.20;99.90;;;18.70;100.00;100317.16;4121921;28;20085;-76
2023/06/09 01:21:44;;;;;;;15.52;12.32;;;19.20;99.90;;;18.75;100.00;100329.88;4120638;28;20098;-75
2023/06/09 01:24:09;;;;;;;12.40;11.23;;;19.30;99.90;;;18.78;100.00;100330.25;4121524;28;20027;-76
2023/06/09 01:26:12;;;;;;;15.38;13.10;;;19.30;99.90;;;18.80;100.00;100327.34;4121777;28;20038;-76
2023/06/09 01:28:23;;;;;;;13.95;12.63;;;19.20;99.90;;;18.81;100.00;100320.16;4120449;28;20025;-76
2023/06/09 01:30:30;;;;;;;14.40;12.45;;;19.20;99.90;;;18.71;100.00;100308.09;4120325;28;20521;-76
2023/06/09 01:32:32;;;;;;;12.68;11.38;;;19.20;99.90;;;18.71;100.00;100316.13;4120412;28;20038;-76
2023/06/09 01:34:34;;;;;;;12.38;10.77;;;19.20;99.90;;;18.68;100.00;100305.06;4120316;28;20161;-75
2023/06/09 01:36:35;;;;;;;13.18;11.93;;;19.20;99.90;;;18.66;100.00;100294.59;4121387;28;20027;-75
2023/06/09 01:38:38;;;;;;;17.73;13.00;;;19.20;99.90;;;18.65;100.00;100292.97;4120372;28;20027;-75
2023/06/09 01:40:39;;;;;;;13.35;12.05;;;19.10;99.90;;;18.61;100.00;100302.44;4120198;28;20059;-75
2023/06/09 01:42:40;;;;;;;11.80;10.32;;;19.10;99.90;;;18.60;100.00;100289.31;4121899;28;20063;-76
2023/06/09 01:44:41;;;;;;;12.80;11.45;;;19.10;99.90;;;18.61;100.00;100294.41;4122388;28;20094;-75
2023/06/09 01:46:42;;;;;;;14.73;12.27;;;19.10;99.90;;;18.60;100.00;100300.81;4135963;28;20117;-76
2023/06/09 01:49:16;;;;;;;10.82;9.85;;;19.10;99.90;;;18.60;100.00;100302.66;4121403;28;20463;-75
2023/06/09 01:51:40;;;;;;;14.32;11.75;;;19.10;99.90;;;18.60;100.00;100298.16;4119988;28;20403;-75
2023/06/09 01:53:49;;;;;;;12.80;11.47;;;19.10;99.90;;;18.57;100.00;100293.25;4120149;28;20050;-76
2023/06/09 01:55:58;;;;;;;13.27;11.88;;;19.10;99.90;;;18.55;100.00;100294.47;4120064;28;20309;-76
2023/06/09 01:58:42;;;;;;;15.85;12.38;;;19.00;99.90;;;18.50;100.00;100295.13;4120172;28;20118;-76
2023/06/09 02:00:47;;;;;;;14.03;11.90;;;19.00;99.90;;;18.48;100.00;100294.53;4120881;28;20037;-75
2023/06/09 02:02:54;;;;;;;13.20;11.82;;;19.00;99.90;;;18.54;100.00;100298.19;4107308;28;20410;-75
2023/06/09 02:04:56;;;;;;;14.05;12.57;;;19.00;99.90;;;18.50;100.00;100287.13;4142764;28;20052;-75
2023/06/09 02:06:59;;;;;;;11.45;10.45;;;19.00;99.90;;;18.51;100.00;100291.44;4135871;28;20061;-75
2023/06/09 02:09:01;;;;;;;15.67;13.07;;;19.00;99.90;;;18.47;100.00;100287.53;4136956;28;20026;-75
2023/06/09 02:11:02;;;;;;;13.43;11.40;;;19.00;99.90;;;18.44;100.00;100282.63;4135985;28;20054;-75
2023/06/09 02:13:14;;;;;;;14.85;11.80;;;19.00;99.90;;;18.47;100.00;100282.19;4135544;28;20041;-75
2023/06/09 02:15:14;;;;;;;13.27;11.88;;;18.90;99.90;;;18.42;100.00;100274.03;4136622;28;20188;-75
2023/06/09 02:17:17;;;;;;;15.32;13.02;;;19.00;99.90;;;18.41;100.00;100275.03;4137027;28;20022;-75
2023/06/09 02:19:19;;;;;;;15.15;13.52;;;18.90;99.90;;;18.39;100.00;100274.47;4136980;28;20097;-75
2023/06/09 02:21:20;;;;;;;12.15;10.88;;;18.90;99.90;;;18.38;100.00;100270.13;4135415;28;20030;-75
2023/06/09 02:23:22;;;;;;;17.27;13.40;;;18.90;99.90;;;18.42;100.00;100273.19;4123269;28;20038;-75
2023/06/09 02:25:23;;;;;;;12.55;11.25;;;18.90;99.90;;;18.32;100.00;100268.34;4120575;28;20038;-75
2023/06/09 02:27:24;;;;;;;11.75;10.32;;;18.80;99.90;;;18.30;100.00;100267.75;4119578;28;20027;-75
2023/06/09 02:29:27;;;;;;;11.25;10.25;;;18.80;99.90;;;18.28;100.00;100266.34;4128457;28;20026;-75
2023/06/09 02:31:27;;;;;;;13.82;12.07;;;18.80;99.90;;;18.17;100.00;100247.31;4123149;28;20118;-75
2023/06/09 02:33:28;;;;;;;12.38;11.07;;;18.70;99.90;;;18.23;100.00;100264.31;4120450;28;20494;-75
2023/06/09 02:35:30;;;;;;;13.05;11.55;;;18.70;99.90;;;18.18;100.00;100253.47;4120597;28;20035;-75
2023/06/09 02:37:31;;;;;;;11.80;10.63;;;18.70;99.90;;;18.18;100.00;100266.81;4103286;28;20574;-75
2023/06/09 02:39:32;;;;;;;12.85;11.63;;;18.70;99.90;;;18.15;100.00;100256.56;4119085;28;20031;-75
2023/06/09 02:41:33;;;;;;;14.13;12.63;;;18.70;99.90;;;18.11;100.00;100256.19;4132981;28;20029;-75
2023/06/09 02:43:34;;;;;;;16.02;11.63;;;18.70;99.90;;;18.05;100.00;100248.22;4120625;28;20023;-75
2023/06/09 02:45:34;;;;;;;13.55;10.60;;;18.60;99.90;;;18.04;100.00;100243.94;4119042;28;20077;-75
2023/06/09 02:47:35;;;;;;;15.40;12.10;;;18.60;99.90;;;18.04;100.00;100251.94;4120377;28;20054;-75
2023/06/09 02:49:36;;;;;;;12.18;11.02;;;18.60;99.90;;;18.04;100.00;100249.28;4119105;28;20023;-75
2023/06/09 02:51:37;;;;;;;13.75;11.40;;;18.60;99.90;;;18.01;100.00;100242.47;4120447;28;20026;-75
2023/06/09 02:53:38;;;;;;;13.60;12.30;;;18.60;99.90;;;17.98;100.00;100245.59;4120506;28;20034;-75
2023/06/09 02:55:39;;;;;;;12.63;11.45;;;18.50;99.90;;;17.97;100.00;100237.81;4120319;28;20391;-75
2023/06/09 02:57:40;;;;;;;13.07;11.77;;;18.50;99.90;;;17.96;100.00;100236.16;4119204;28;20062;-75
2023/06/09 02:59:41;;;;;;;14.05;12.57;;;18.50;99.90;;;17.95;100.00;100237.22;4120223;28;20031;-75
2023/06/09 03:01:42;;;;;;;17.65;11.38;;;18.50;99.90;;;17.91;100.00;100231.50;4120041;28;20023;-76
2023/06/09 03:03:45;;;;;;;13.25;11.95;;;18.50;99.90;;;17.90;100.00;100235.19;4113457;28;20031;-75
2023/06/09 03:05:47;;;;;;;13.97;11.63;;;18.50;99.90;;;17.88;100.00;100233.78;4120270;28;20110;-75
2023/06/09 03:07:49;;;;;;;13.90;11.70;;;18.40;99.90;;;17.86;100.00;100233.19;4118969;28;20025;-76
2023/06/09 03:09:50;;;;;;;14.57;11.63;;;18.40;99.90;;;17.80;100.00;100232.16;4119146;28;20077;-75
2023/06/09 03:11:51;;;;;;;13.55;11.20;;;18.40;99.90;;;17.69;100.00;100215.00;4118806;28;20022;-75
2023/06/09 03:13:52;;;;;;;13.18;11.48;;;18.40;99.90;;;17.78;100.00;100234.22;4122097;28;20022;-75
2023/06/09 03:15:54;;;;;;;12.52;11.32;;;18.40;99.90;;;17.77;100.00;100226.47;4119832;28;20043;-75
2023/06/09 03:17:57;;;;;;;11.80;10.60;;;18.30;99.90;;;17.79;100.00;100219.06;4120319;28;20030;-75
2023/06/09 03:19:58;;;;;;;14.30;10.25;;;18.30;99.90;;;17.73;100.00;100203.91;4120008;28;20375;-75
2023/06/09 03:21:59;;;;;;;13.48;12.07;;;18.30;99.90;;;17.73;100.00;100202.06;4121212;28;20038;-75
2023/06/09 03:24:00;;;;;;;11.45;10.30;;;18.30;99.90;;;17.80;100.00;100204.69;4119441;28;20426;-76
2023/06/09 03:26:01;;;;;;;12.98;11.60;;;18.30;99.90;;;17.81;100.00;100206.31;4119020;28;20474;-75
2023/06/09 03:28:02;;;;;;;11.80;10.70;;;18.30;99.90;;;17.82;100.00;100199.94;4119973;28;20030;-76
2023/06/09 03:30:05;;;;;;;12.40;11.20;;;18.40;99.90;;;17.82;100.00;100194.59;4119650;28;20037;-75
2023/06/09 03:32:07;;;;;;;12.35;11.18;;;18.40;99.90;;;17.81;100.00;100195.63;4120183;28;20382;-75
2023/06/09 03:34:08;;;;;;;11.85;10.25;;;18.40;99.90;;;17.80;100.00;100194.00;4118794;28;20128;-75
2023/06/09 03:36:09;;;;;;;11.55;10.35;;;18.40;99.90;;;17.83;100.00;100198.91;4118751;28;20039;-75
2023/06/09 03:38:10;;;;;;;12.48;11.18;;;18.30;99.90;;;17.79;100.00;100200.38;4134859;28;20524;-75
2023/06/09 03:40:15;;;;;;;10.73;9.63;;;18.30;99.90;;;17.79;100.00;100195.03;4118784;28;20031;-75
2023/06/09 03:42:15;;;;;;;10.90;9.80;;;18.30;99.90;;;17.79;100.00;100203.03;4118734;28;20380;-75
2023/06/09 03:44:16;;;;;;;10.57;9.48;;;18.30;99.90;;;17.79;100.00;100200.38;4119855;28;20038;-75
2023/06/09 03:46:17;;;;;;;9.93;8.93;;;18.30;99.90;;;17.73;100.00;100188.72;4134508;28;20418;-75
2023/06/09 03:48:18;;;;;;;12.55;11.27;;;18.30;99.90;;;17.78;100.00;100196.88;4118626;28;20073;-75
2023/06/09 03:50:19;;;;;;;12.50;11.20;;;18.30;99.90;;;17.75;100.00;100193.81;4118579;28;20037;-75
2023/06/09 03:52:21;;;;;;;13.13;11.75;;;18.30;99.90;;;17.74;100.00;100198.34;4134737;28;20033;-75
2023/06/09 03:54:22;;;;;;;12.43;11.13;;;18.30;99.90;;;17.71;100.00;100189.97;4119660;28;20046;-75
2023/06/09 03:56:23;;;;;;;13.05;11.65;;;18.20;99.90;;;17.70;100.00;100199.81;4119829;28;20097;-76
2023/06/09 03:58:25;;;;;;;14.38;11.70;;;18.30;99.90;;;17.69;100.00;100201.66;4119737;28;20593;-76
2023/06/09 04:00:26;;;;;;;12.55;10.52;;;18.20;99.90;;;17.68;100.00;100197.34;4123612;28;20564;-75
2023/06/09 04:02:27;;;;;;;12.10;10.98;;;18.20;99.90;;;17.67;100.00;100201.06;4122733;28;20031;-75
2023/06/09 04:04:28;;;;;;;13.63;12.32;;;18.20;99.90;;;17.66;100.00;100194.09;4132161;28;20019;-75
2023/06/09 04:06:29;;;;;;;12.15;10.93;;;18.20;99.90;;;17.66;100.00;100193.28;4118720;28;20026;-75
2023/06/09 04:08:30;;;;;;;12.13;11.02;;;18.20;99.90;;;17.69;100.00;100201.66;4119698;28;20065;-75
2023/06/09 04:10:30;;;;;;;12.13;10.85;;;18.30;99.90;;;17.71;100.00;100203.31;4119547;28;20117;-75
2023/06/09 04:12:31;;;;;;;10.85;9.85;;;18.30;99.90;;;17.72;100.00;100207.59;4118650;28;20494;-75
2023/06/09 04:14:32;;;;;;;12.05;10.88;;;18.20;99.90;;;17.72;100.00;100210.25;4134586;28;20054;-75
2023/06/09 04:16:33;;;;;;;13.55;11.57;;;18.20;99.90;;;17.71;100.00;100211.31;4119168;28;20050;-75
2023/06/09 04:18:34;;;;;;;12.43;11.13;;;18.20;99.90;;;17.69;100.00;100212.34;4119616;28;20027;-76
2023/06/09 04:20:35;;;;;;;13.32;11.45;;;18.20;99.90;;;17.69;100.00;100212.34;4118365;28;20035;-75
2023/06/09 04:22:36;;;;;;;10.90;9.93;;;18.20;99.90;;;17.71;100.00;100205.97;4126081;28;20589;-75
2023/06/09 04:24:37;;;;;;;11.25;10.18;;;18.20;99.90;;;17.69;100.00;100209.66;4135667;28;20034;-75
2023/06/09 04:26:38;;;;;;;11.73;10.52;;;18.20;99.90;;;17.70;100.00;100210.50;4135522;28;20027;-75
2023/06/09 04:28:40;;;;;;;11.55;10.45;;;18.20;99.90;;;17.72;100.00;100223.59;4135512;28;20019;-75
2023/06/09 04:30:41;;;;;;;13.48;11.43;;;18.30;99.90;;;17.70;100.00;100218.50;4134298;28;20108;-75
2023/06/09 04:32:42;;;;;;;11.68;10.57;;;18.20;99.90;;;17.68;100.00;100221.34;4135530;28;20023;-75
2023/06/09 04:34:46;;;;;;;12.02;10.85;;;18.20;99.90;;;17.73;100.00;100230.56;4123700;28;20027;-76
2023/06/09 04:36:47;;;;;;;;;;;18.20;99.90;;;17.67;100.00;100233.09;4135568;28;20393;-75
2023/06/09 04:38:48;;;;;;;14.10;12.50;;;18.30;99.90;;;17.69;100.00;100239.00;4153526;28;19952;-75
2023/06/09 04:40:49;;;;;;;14.02;12.73;;;18.20;99.90;;;17.74;100.00;100245.56;4137329;28;20419;-76
2023/06/09 04:42:58;;;;;;;13.85;12.55;;;18.30;99.90;;;17.75;100.00;100249.84;4153312;28;20064;-75
2023/06/09 04:45:02;;;;;;;14.15;12.93;;;18.30;99.90;;;17.68;100.00;100245.38;4122111;28;20109;-75
2023/06/09 04:47:05;;;;;;;14.50;12.30;;;18.20;99.90;;;17.64;100.00;100238.84;4122255;28;20019;-75
2023/06/09 04:49:08;;;;;;;15.02;11.93;;;18.20;99.90;;;17.65;100.00;100248.47;4122185;28;20042;-76
2023/06/09 04:51:10;;;;;;;;;;;18.20;99.90;;;17.57;100.00;100238.06;4122446;28;20122;-75
2023/06/09 04:53:11;;;;;;;12.00;10.65;;;18.20;99.90;;;17.59;100.00;100240.53;4128280;28;20000;-75
2023/06/09 04:55:12;;;;;;;10.93;9.93;;;18.20;99.90;;;17.63;100.00;100244.38;4122132;28;20034;-75
2023/06/09 04:57:17;;;;;;;11.35;10.35;;;18.20;99.90;;;17.61;100.00;100241.94;4122256;28;20394;-76
2023/06/09 04:59:21;;;;;;;11.80;10.60;;;18.20;99.90;;;17.63;100.00;100245.19;4121935;28;20047;-75
2023/06/09 05:01:23;;;;;;;12.95;11.13;;;18.20;99.90;;;17.62;100.00;100243.56;4121809;28;20034;-75
2023/06/09 05:03:25;;;;;;;12.25;10.23;;;18.20;99.90;;;17.61;100.00;100254.44;4131319;28;20109;-75
2023/06/09 05:05:26;;;;;;;11.32;10.23;;;18.20;99.90;;;17.63;100.00;100263.88;4126704;28;20026;-76
2023/06/09 05:07:27;;;;;;;11.82;10.73;;;18.20;99.90;;;17.66;100.00;100268.78;4122004;28;20491;-76
2023/06/09 05:09:28;;;;;;;11.88;10.88;;;18.20;99.90;;;17.66;100.00;100270.63;4122050;28;20077;-76
2023/06/09 05:11:28;;;;;;;11.93;10.82;;;18.20;99.90;;;17.69;100.00;100270.19;4121896;28;20065;-75
2023/06/09 05:13:29;;;;;;;14.13;12.82;;;18.20;99.90;;;17.71;100.00;100273.50;4122108;28;20513;-75
2023/06/09 05:15:30;;;;;;;12.63;11.43;;;18.20;99.90;;;17.69;100.00;100263.03;4121400;28;20166;-75
2023/06/09 05:17:33;;;;;;;12.15;11.05;;;18.20;99.90;;;17.71;100.00;100267.34;4121863;28;20035;-76
2023/06/09 05:19:34;;;;;;;11.32;10.23;;;18.20;99.90;;;17.67;100.00;100261.59;4120527;28;20026;-75
2023/06/09 05:21:35;;;;;;;12.88;10.60;;;18.20;99.90;;;17.71;100.00;100264.66;4131512;28;20038;-75
2023/06/09 05:23:36;;;;;;;12.15;11.10;;;18.20;99.90;;;17.63;100.00;100263.06;4136243;28;20030;-76
2023/06/09 05:25:38;;;;;;;11.35;10.35;;;18.20;99.90;;;17.69;100.00;100273.69;4136574;28;20027;-75
2023/06/09 05:27:39;;;;;;;13.57;10.77;;;18.20;99.90;;;17.73;100.00;100273.25;4137406;28;20026;-76
2023/06/09 05:29:40;;;;;;;12.32;10.02;;;18.30;99.90;;;17.77;100.00;100275.28;4136374;28;20026;-75
2023/06/09 05:31:41;;;;;;;14.00;11.23;;;18.30;99.90;;;17.71;100.00;100268.16;4152292;28;20025;-76
2023/06/09 05:33:43;;;;;;;14.60;12.23;;;18.30;99.90;;;17.75;100.00;100274.69;4136461;28;20030;-75
2023/06/09 05:35:45;;;;;;;12.60;11.27;;;18.30;99.90;;;17.82;100.00;100277.31;4136301;28;20023;-75
2023/06/09 05:37:52;;;;;;;12.88;10.80;;;18.30;99.90;;;17.89;100.00;100278.09;4137483;28;20026;-76
2023/06/09 05:39:53;;;;;;;12.40;11.05;;;18.40;99.90;;;17.94;100.00;100278.28;4136248;28;20042;-75
2023/06/09 05:41:54;;;;;;;13.55;11.50;;;18.40;99.90;;;17.91;100.00;100276.03;4137599;28;20034;-76
2023/06/09 05:43:57;;;;;;;13.32;10.75;;;18.50;99.90;;;17.95;100.00;100275.38;4129174;28;20023;-76
2023/06/09 05:45:58;;;;;;;10.35;9.35;;;18.50;99.90;;;17.97;100.00;100280.50;4119980;28;20402;-75
2023/06/09 05:47:59;;;;;;;11.48;10.48;;;18.50;99.90;;;17.97;100.00;100269.84;4120543;28;20103;-75
2023/06/09 05:50:00;;;;;;;15.57;10.63;;;18.60;99.90;;;17.97;100.00;100264.50;4121437;28;20034;-75
2023/06/09 05:52:01;;;;;;;10.25;9.20;;;18.60;99.90;;;18.06;100.00;100272.03;4121236;28;20058;-75
2023/06/09 05:54:03;;;;;;;9.75;8.88;;;18.70;99.90;;;18.10;100.00;100270.56;4124683;28;20053;-75
2023/06/09 05:56:05;;;;;;;11.38;10.20;;;18.60;99.90;;;18.16;100.00;100266.19;4119876;28;20030;-75
2023/06/09 05:58:06;;;;;;;11.40;10.20;;;18.70;99.90;;;18.16;100.00;100275.03;4120079;28;20030;-75
2023/06/09 06:00:09;;;;;;;11.07;9.90;;;18.70;99.90;;;18.19;100.00;100268.44;4119726;28;20031;-75
2023/06/09 06:02:09;;;;;;;9.95;9.05;;;18.80;99.90;;;18.14;100.00;100261.09;4121201;28;20027;-75
2023/06/09 06:04:10;;;;;;;10.85;9.73;;;18.80;99.90;;;18.21;100.00;100271.72;4135037;28;20401;-75
2023/06/09 06:06:11;;;;;;;9.85;8.95;;;18.80;99.90;;;18.22;100.00;100271.50;4126602;28;20029;-75
2023/06/09 06:08:12;;;;;;;10.05;8.90;;;18.80;99.90;;;18.14;100.00;100257.59;4137088;28;20398;-76
2023/06/09 06:10:14;;;;;;;10.25;9.35;;;18.80;99.90;;;18.18;100.00;100264.97;4137198;28;20030;-75
2023/06/09 06:12:15;;;;;;;9.80;8.93;;;18.70;99.90;;;18.09;100.00;100249.44;4135645;28;20030;-76
2023/06/09 06:14:15;;;;;;;9.27;8.43;;;18.70;99.90;;;18.15;100.00;100261.91;4133311;28;20114;-76
2023/06/09 06:16:16;;;;;;;9.50;8.60;;;18.80;99.90;;;18.21;100.00;100269.06;4120731;28;20407;-75
2023/06/09 06:18:17;;;;;;;11.25;10.13;;;18.80;99.90;;;18.21;100.00;100261.03;4119686;28;20130;-75
2023/06/09 06:20:18;;;;;;;10.25;9.27;;;18.80;99.90;;;18.17;100.00;100243.81;4120641;28;20082;-75
2023/06/09 06:22:19;;;;;;;10.48;9.50;;;18.80;99.90;;;18.27;100.00;100262.84;4123360;28;20022;-75
2023/06/09 06:24:20;;;;;;;13.02;10.02;;;18.80;99.90;;;18.29;100.00;100266.09;4129024;28;20027;-76
2023/06/09 06:26:21;;;;;;;11.88;10.63;;;18.90;99.90;;;18.36;100.00;100276.75;4120927;28;20029;-76
2023/06/09 06:28:22;;;;;;;11.77;10.70;;;18.90;99.90;;;18.40;100.00;100272.63;4119323;28;20114;-75
2023/06/09 06:30:23;;;;;;;12.07;10.80;;;19.00;99.90;;;18.42;100.00;100268.69;4119226;28;20031;-76
2023/06/09 06:32:25;;;;;;;14.35;10.23;;;19.00;99.90;;;18.49;100.00;100274.78;4121846;28;20035;-75
2023/06/09 06:34:25;;;;;;;11.82;10.02;;;19.10;99.90;;;18.51;100.00;100278.09;4126272;28;20037;-76
2023/06/09 06:36:27;;;;;;;13.25;11.07;;;19.10;99.90;;;18.60;100.00;100276.78;4135491;28;20027;-76
2023/06/09 06:38:28;;;;;;;11.93;10.82;;;19.10;99.90;;;18.63;100.00;100280.84;4120572;28;20034;-75
2023/06/09 06:40:29;;;;;;;10.85;9.75;;;19.10;99.90;;;18.65;100.00;100263.56;4120511;28;20034;-75
2023/06/09 06:42:30;;;;;;;14.27;10.48;;;19.20;99.90;;;18.74;100.00;100275.59;4134064;28;20101;-75
2023/06/09 06:44:31;;;;;;;10.07;9.10;;;19.30;99.90;;;18.80;100.00;100279.25;4123011;28;20062;-76
2023/06/09 06:46:32;;;;;;;10.98;9.90;;;19.30;99.90;;;18.86;100.00;100278.38;4120097;28;20379;-75
2023/06/09 06:48:33;;;;;;;11.75;10.52;;;19.40;99.90;;;18.92;100.00;100268.63;4120647;28;20023;-76
2023/06/09 06:50:34;;;;;;;10.93;9.50;;;19.40;99.90;;;19.01;100.00;100267.31;4119387;28;20038;-75
2023/06/09 06:52:35;;;;;;;10.25;9.25;;;19.50;99.90;;;19.13;100.00;100270.88;4123029;28;20026;-75
2023/06/09 06:54:36;;;;;;;11.55;9.25;;;19.60;99.90;;;19.18;100.00;100273.69;4119750;28;20029;-76
2023/06/09 06:56:37;;;;;;;9.98;8.90;;;19.70;99.90;;;19.21;100.00;100276.75;4120350;28;20031;-75
2023/06/09 06:58:38;;;;;;;9.57;8.57;;;19.70;99.90;;;19.27;100.00;100277.69;4118514;28;20031;-75
2023/06/09 07:00:39;;;;;;;8.82;7.30;;;19.80;99.90;;;19.32;100.00;100272.53;4119584;28;20031;-75
2023/06/09 07:02:46;;;;;;;8.85;8.05;;;19.80;99.90;;;19.43;100.00;100270.97;4122938;28;20512;-75
2023/06/09 07:04:47;;;;;;;9.40;8.50;;;19.90;99.90;;;19.56;100.00;100268.13;4130092;28;20039;-75
2023/06/09 07:06:48;;;;;;;8.57;7.82;;;20.00;99.90;;;19.71;100.00;100268.56;4119516;28;20087;-75
2023/06/09 07:08:51;;;;;;;11.63;9.20;;;20.10;99.90;;;19.87;100.00;100262.53;4120133;28;20034;-76
2023/06/09 07:10:51;;;;;;;9.73;8.75;;;20.30;99.90;;;19.96;100.00;100265.72;4120001;28;20039;-75
2023/06/09 07:12:52;;;;;;;9.85;8.95;;;20.50;99.90;;;20.00;100.00;100254.31;4124711;28;20033;-75
2023/06/09 07:14:53;;;;;;;9.77;7.85;;;20.50;99.90;;;20.07;100.00;100263.06;4125239;28;20491;-75
2023/06/09 07:16:54;;;;;;;8.25;7.45;;;20.60;99.90;;;20.20;100.00;100256.69;4118916;28;20031;-75
2023/06/09 07:18:55;;;;;;;8.68;7.45;;;20.70;99.90;;;20.31;100.00;100242.50;4119975;28;20030;-75
2023/06/09 07:20:56;;;;;;;9.18;8.30;;;20.80;99.90;;;20.41;100.00;100238.22;4118863;28;20039;-75
2023/06/09 07:22:57;;;;;;;10.50;8.90;;;20.90;99.90;;;20.41;100.00;100226.69;4125929;28;20495;-75
2023/06/09 07:24:58;;;;;;;8.82;7.75;;;21.00;99.90;;;20.46;100.00;100236.72;4123594;28;20502;-75
2023/06/09 07:26:58;;;;;;;11.40;8.70;;;21.00;99.90;;;20.58;100.00;100243.69;4119884;28;20031;-75
2023/06/09 07:28:59;;;;;;;9.27;8.38;;;21.10;99.90;;;20.66;100.00;100243.38;4120131;28;20487;-75
2023/06/09 07:31:00;;;;;;;9.80;8.23;;;21.20;99.90;;;20.76;100.00;100256.97;4119763;28;20031;-75
2023/06/09 07:33:01;;;;;;;7.97;7.20;;;21.30;99.90;;;20.86;100.00;100254.53;4124178;28;20033;-75
2023/06/09 07:35:02;;;;;;;10.93;9.90;;;21.30;99.90;;;20.84;100.00;100272.72;4119111;28;20798;-75
2023/06/09 07:37:04;;;;;;;9.35;7.32;;;21.40;99.90;;;20.72;100.00;100314.81;4138499;28;20040;-75
2023/06/09 07:39:06;;;;;;;8.82;8.00;;;21.40;99.90;;;20.47;100.00;100327.59;4150940;28;20064;-76
2023/06/09 07:41:06;;;;;;;11.90;8.88;;;21.20;99.90;;;20.15;100.00;100344.94;4134762;28;20047;-75
2023/06/09 07:43:07;;;;;;;11.65;9.15;;;21.00;99.90;;;19.73;100.00;100286.00;4133203;28;20019;-76
2023/06/09 07:45:10;;;;;;;24.58;11.95;;;20.60;99.90;;;18.95;100.00;100252.16;4118608;28;20042;-75
2023/06/09 07:47:10;;;;;;;13.25;10.57;;;20.00;99.90;;;18.47;100.00;100255.47;4134632;28;20035;-75
2023/06/09 07:49:13;;;;;;;13.35;10.25;;;19.50;99.90;;;18.03;100.00;100240.44;4119878;28;20030;-75
2023/06/09 07:51:14;;;;;;;16.50;10.80;;;19.00;99.90;;;17.79;100.00;100227.88;4118580;28;20034;-75
2023/06/09 07:53:14;;;;;;;12.95;11.60;;;18.70;99.90;;;17.68;100.00;100208.03;4135795;28;20033;-75
2023/06/09 07:55:15;;;;;;;14.00;10.10;;;18.40;99.90;;;17.55;100.00;100186.78;4119883;28;20030;-75
2023/06/09 07:57:16;;;;;;;12.25;10.98;;;18.30;99.90;;;17.54;100.00;100203.81;4119791;28;20109;-75
2023/06/09 07:59:18;;;;;;;15.63;11.85;;;18.20;99.90;;;17.55;100.00;100185.97;4119625;28;20023;-75
2023/06/09 08:01:19;;;;;;;13.60;11.07;;;18.20;99.90;;;17.60;100.00;100207.47;4119537;28;20046;-75
2023/06/09 08:03:20;;;;;;;11.38;8.65;;;18.20;99.90;;;17.69;100.00;100223.00;4127093;28;20023;-75
2023/06/09 08:05:22;;;;;;;10.20;8.80;;;18.20;99.90;;;17.99;100.00;100239.22;4134568;28;20109;-75
2023/06/09 08:07:22;;;;;;;12.77;9.35;;;18.30;99.90;;;18.35;100.00;100241.19;4135706;28;20027;-75
2023/06/09 08:09:24;;;;;;;10.05;8.75;;;18.60;99.90;;;18.78;100.00;100238.56;4134615;28;20034;-75
2023/06/09 08:11:26;;;;;;;10.35;8.25;;;19.00;99.90;;;19.34;100.00;100233.81;4137994;28;20084;-75
2023/06/09 08:13:28;;;;;;;11.93;8.80;;;19.40;99.90;;;19.91;100.00;100228.94;4138826;28;20026;-75
2023/06/09 08:15:28;;;;;;;10.05;7.32;;;20.00;99.90;;;20.43;100.00;100240.66;4136062;28;20528;-75